Girard, Ohio
Current Conditions -  °F | °C
As of 3:51 PM on Wednesday 26 Nov 2014 (Local Time) from KYNG Reporting Station
Overcast Overcast  
Wind Chill: 31°   Ceiling: 2200
Heat Index: 35°   Visibility: 10mi
Dew Point: 28°   Wind: 5mph
Humidity: 76%   Direction: 50°NE
Pressure: 30"   Gusts: NA
Location:  41.15°N, 80.7°W
Report Text: KYNG 262051Z 05004KT 10SM BKN022 OVC170 02/M02 A3000 RMK AO2 SLP171 T00171022 56012
Loading
Personal Weather Stations






























Interactive Weather Map New forecast layout! Learn more

10-Day Weather Forecast

Advertisements
Track Severe Weather on mobile